Time;durP1;ratioP1;P1;durP2;ratioP2;P2;SDS_P1;SDS_P2;PMS_P1;PMS_P2;Temp;Humidity;BMP_temperature;BMP_pressure;BME280_temperature;BME280_humidity;BME280_pressure;Samples;Min_cycle;Max_cycle;Signal;HPM_P1;HPM_P2
2021/12/04 00:01:10;;;;;;;;;;;;;;;-144.99;100.00;52566.31;5087135;28;19977;-59
2021/12/04 00:03:38;;;;;;;;;;;;;;;-144.99;100.00;52596.88;5083647;28;19992;-59
2021/12/04 00:06:09;;;;;;;;;;;;;;;-144.99;100.00;52598.94;5091650;28;19977;-59
2021/12/04 00:08:36;;;;;;;;;;;;;;;-144.99;100.00;52607.09;5085227;28;19991;-60
2021/12/04 00:11:02;;;;;;;;;;;;;;;-144.99;100.00;52611.16;5087108;28;19998;-59
2021/12/04 00:13:29;;;;;;;;;;;;;;;-144.99;100.00;52574.47;5084981;28;19996;-60
2021/12/04 00:15:55;;;;;;;;;;;;;;;-144.99;100.00;52619.31;5086299;28;19981;-59
2021/12/04 00:18:22;;;;;;;;;;;;;;;-144.99;100.00;52590.78;5084551;28;19985;-59
2021/12/04 00:20:50;;;;;;;;;;;;;;;-144.99;100.00;52641.72;5082840;28;19988;-59
2021/12/04 00:23:16;;;;;;;;;;;;;;;-144.99;100.00;52590.78;5084014;28;20345;-59
2021/12/04 00:25:43;;;;;;;;;;;;;;;-144.99;100.00;52586.69;5083824;28;20484;-59
2021/12/04 00:28:09;;;;;;;;;;;;;;;-144.99;100.00;52607.09;5078905;28;19991;-59
2021/12/04 00:30:37;;;;;;;;;;;;;;;-144.99;100.00;52631.53;5086355;28;20023;-59
2021/12/04 00:33:04;;;;;;;;;;;;;;;-144.99;100.00;52562.25;5086306;28;20000;-59
2021/12/04 00:35:44;;;;;;;;;;;;;;;-144.99;100.00;52582.63;5085720;28;20030;-64
2021/12/04 00:49:22;;;;;;;;;;;;;;;-144.99;100.00;52615.25;5079735;28;20542;-64
2021/12/04 00:51:53;;;;;;;;;;;;;;;-144.99;100.00;52562.25;5085917;28;20001;-59
2021/12/04 00:54:21;;;;;;;;;;;;;;;-144.99;100.00;52594.84;5085271;28;19999;-59
2021/12/04 00:56:47;;;;;;;;;;;;;;;-144.99;100.00;52607.09;5086212;28;19976;-60
2021/12/04 00:59:14;;;;;;;;;;;;;;;-144.99;100.00;52598.94;5086867;28;19987;-60
2021/12/04 01:01:42;;;;;;;;;;;;;;;-144.99;100.00;52590.78;5086671;28;20007;-60
2021/12/04 01:04:09;;;;;;;;;;;;;;;-144.99;100.00;52562.25;5081527;28;20095;-60
2021/12/04 01:06:35;;;;;;;;;;;;;;;-144.99;100.00;52570.38;5090278;28;20037;-60
2021/12/04 01:09:02;;;;;;;;;;;;;;;-144.99;100.00;52603.00;5085651;28;19977;-61
2021/12/04 01:11:29;;;;;;;;;;;;;;;-144.99;100.00;52578.53;5085754;28;20006;-61
2021/12/04 01:13:56;;;;;;;;;;;;;;;-144.99;100.00;52592.81;5080484;28;19992;-60
2021/12/04 01:16:22;;;;;;;;;;;;;;;-144.99;100.00;52582.63;5086188;28;19976;-60
2021/12/04 01:18:48;;;;;;;;;;;;;;;-144.99;100.00;52594.84;5083647;28;20032;-60
2021/12/04 01:21:15;;;;;;;;;;;;;;;-144.99;100.00;52611.16;5085076;28;19987;-60
2021/12/04 01:23:41;;;;;;;;;;;;;;;-144.99;100.00;52590.78;5085583;28;19996;-60
2021/12/04 01:26:08;;;;;;;;;;;;;;;-144.99;100.00;52570.38;5086112;28;20006;-61
2021/12/04 01:28:35;;;;;;;;;;;;;;;-144.99;100.00;52586.69;5085731;28;20090;-60
2021/12/04 01:31:02;;;;;;;;;;;;;;;-144.99;100.00;52647.84;5085417;28;20000;-61
2021/12/04 01:33:28;;;;;;;;;;;;;;;-144.99;100.00;52586.69;5089731;28;20049;-61
2021/12/04 01:35:55;;;;;;;;;;;;;;;-144.99;100.00;52570.38;5088916;28;20075;-61
2021/12/04 01:38:21;;;;;;;;;;;;;;;-144.99;100.00;52590.78;5089578;28;19985;-61
2021/12/04 01:40:47;;;;;;;;;;;;;;;-144.99;100.00;52578.53;5089175;28;20055;-61
2021/12/04 01:43:14;;;;;;;;;;;;;;;-144.99;100.00;52619.31;5089324;28;19979;-61
2021/12/04 01:45:42;;;;;;;;;;;;;;;-144.99;100.00;52590.78;5088982;28;19988;-61
2021/12/04 01:48:08;;;;;;;;;;;;;;;-144.99;100.00;52584.66;5086227;28;19984;-61
2021/12/04 01:50:35;;;;;;;;;;;;;;;-144.99;100.00;52590.78;5088749;28;19993;-60
2021/12/04 01:53:02;;;;;;;;;;;;;;;-144.99;100.00;52603.00;5088535;28;20582;-60
2021/12/04 01:55:30;;;;;;;;;;;;;;;-144.99;100.00;52556.13;5088788;28;19992;-60
2021/12/04 01:57:57;;;;;;;;;;;;;;;-144.99;100.00;52615.25;5088872;28;19976;-60
2021/12/04 02:00:24;;;;;;;;;;;;;;;-144.99;100.00;52598.94;5088169;28;19980;-60
2021/12/04 02:02:52;;;;;;;;;;;;;;;-144.99;100.00;52558.16;5088840;28;19977;-60
2021/12/04 02:05:18;;;;;;;;;;;;;;;-144.99;100.00;52603.00;5094812;28;20432;-60
2021/12/04 02:07:45;;;;;;;;;;;;;;;-144.99;100.00;52615.25;4736980;28;10000514;-60
2021/12/04 02:10:11;;;;;;;;;;;;;;;-144.99;100.00;52582.63;5088424;28;20442;-62
2021/12/04 02:12:38;;;;;;;;;;;;;;;-144.99;100.00;52590.78;5088533;28;20000;-61
2021/12/04 02:15:05;;;;;;;;;;;;;;;-144.99;100.00;52586.69;5087635;28;20415;-60
2021/12/04 02:17:32;;;;;;;;;;;;;;;-144.99;100.00;52598.94;5101283;22;20303;-60
2021/12/04 02:19:59;;;;;;;;;;;;;;;-144.99;100.00;52603.00;5090494;28;20320;-61
2021/12/04 02:22:27;;;;;;;;;;;;;;;-144.99;100.00;52631.53;5091876;28;19984;-60
2021/12/04 02:24:54;;;;;;;;;;;;;;;-144.99;100.00;52558.16;5103998;28;19995;-60
2021/12/04 02:27:20;;;;;;;;;;;;;;;-144.99;100.00;52598.94;5102614;28;20428;-61
2021/12/04 02:29:48;;;;;;;;;;;;;;;-144.99;100.00;52588.75;5105983;28;19991;-61
2021/12/04 02:32:14;;;;;;;;;;;;;;;-144.99;100.00;52578.53;5104744;28;19992;-60
2021/12/04 02:34:41;;;;;;;;;;;;;;;-144.99;100.00;52607.09;5105138;28;20000;-61
2021/12/04 02:37:08;;;;;;;;;;;;;;;-144.99;100.00;52586.69;5102357;28;19972;-60
2021/12/04 02:39:38;;;;;;;;;;;;;;;-144.99;100.00;52578.53;5104036;28;19987;-60
2021/12/04 02:42:06;;;;;;;;;;;;;;;-144.99;100.00;52590.78;5103790;28;20025;-62
2021/12/04 02:44:33;;;;;;;;;;;;;;;-144.99;100.00;52582.63;5103450;28;20099;-62
2021/12/04 02:47:00;;;;;;;;;;;;;;;-144.99;100.00;52617.28;5102546;28;19976;-62
2021/12/04 02:49:26;;;;;;;;;;;;;;;-144.99;100.00;52656.00;5102377;28;20119;-62
2021/12/04 02:51:52;;;;;;;;;;;;;;;-144.99;100.00;52541.84;5101716;28;19988;-61
2021/12/04 02:54:19;;;;;;;;;;;;;;;-144.99;100.00;52615.25;5104133;28;20453;-60
2021/12/04 02:56:49;;;;;;;;;;;;;;;-144.99;100.00;52594.84;5100949;28;20406;-61
2021/12/04 02:59:15;;;;;;;;;;;;;;;-144.99;100.00;52609.13;5105067;28;19973;-61
2021/12/04 03:01:41;;;;;;;;;;;;;;;-144.99;100.00;52603.00;5107664;28;19986;-61
2021/12/04 03:04:09;;;;;;;;;;;;;;;-144.99;100.00;52590.78;5097610;28;20000;-59
2021/12/04 03:06:40;;;;;;;;;;;;;;;-144.99;100.00;52578.53;5105235;28;20397;-58
2021/12/04 03:09:06;;;;;;;;;;;;;;;-144.99;100.00;52586.69;5100012;28;20026;-59
2021/12/04 03:11:33;;;;;;;;;;;;;;;-144.99;100.00;52588.75;5103265;28;19976;-61
2021/12/04 03:14:01;;;;;;;;;;;;;;;-144.99;100.00;52651.94;5096269;28;20032;-59
2021/12/04 03:16:27;;;;;;;;;;;;;;;-144.99;100.00;52623.38;5091782;28;19977;-59
2021/12/04 03:18:53;;;;;;;;;;;;;;;-144.99;100.00;52603.00;5098427;28;19987;-59
2021/12/04 03:21:20;;;;;;;;;;;;;;;-144.99;100.00;52600.97;5103218;28;19973;-59
2021/12/04 03:23:53;;;;;;;;;;;;;;;-144.99;100.00;52633.59;5100780;28;20031;-60
2021/12/04 03:26:20;;;;;;;;;;;;;;;-144.99;100.00;52580.59;5103471;28;19972;-59
2021/12/04 03:28:47;;;;;;;;;;;;;;;-144.99;100.00;52611.16;5100031;28;19976;-59
2021/12/04 03:31:19;;;;;;;;;;;;;;;-144.99;100.00;52619.31;5103345;28;19973;-58
2021/12/04 03:41:57;;;;;;;;;;;;;;;-144.99;100.00;52582.63;5106616;28;20071;-58
2021/12/04 03:44:23;;;;;;;;;;;;;;;-144.99;100.00;52550.00;5102546;28;20032;-60
2021/12/04 03:46:51;;;;;;;;;;;;;;;-144.99;100.00;52576.50;5100257;28;19973;-60
2021/12/04 03:49:18;;;;;;;;;;;;;;;-144.99;100.00;52621.34;5102851;28;20317;-62
2021/12/04 03:51:44;;;;;;;;;;;;;;;-144.99;100.00;52598.94;5099294;28;19980;-61
2021/12/04 03:54:11;;;;;;;;;;;;;;;-144.99;100.00;52623.38;5102565;28;20430;-61
2021/12/04 03:56:37;;;;;;;;;;;;;;;-144.99;100.00;52529.63;5099430;28;19976;-62
2021/12/04 03:59:04;;;;;;;;;;;;;;;-144.99;100.00;52582.63;5104349;28;19980;-62
2021/12/04 04:01:30;;;;;;;;;;;;;;;-144.99;100.00;52643.78;5105381;28;20405;-63
2021/12/04 04:03:58;;;;;;;;;;;;;;;-144.99;100.00;52625.44;5099718;28;20023;-61
2021/12/04 04:06:24;;;;;;;;;;;;;;;-144.99;100.00;52590.78;5102516;28;19976;-61
2021/12/04 04:08:50;;;;;;;;;;;;;;;-144.99;100.00;52627.47;5100899;28;19976;-63
2021/12/04 04:11:17;;;;;;;;;;;;;;;-144.99;100.00;52562.25;5100521;28;19972;-60
2021/12/04 04:13:44;;;;;;;;;;;;;;;-144.99;100.00;52570.38;5099957;28;19975;-62
2021/12/04 04:16:11;;;;;;;;;;;;;;;-144.99;100.00;52615.25;5099612;28;20339;-61
2021/12/04 04:18:37;;;;;;;;;;;;;;;-144.99;100.00;52590.78;5100674;28;20360;-63
2021/12/04 04:21:05;;;;;;;;;;;;;;;-144.99;100.00;52570.38;5100426;28;20113;-61
2021/12/04 04:23:32;;;;;;;;;;;;;;;-144.99;100.00;52541.84;5101672;28;19998;-60
2021/12/04 04:25:58;;;;;;;;;;;;;;;-144.99;100.00;52631.53;5096676;28;19984;-60
2021/12/04 04:28:24;;;;;;;;;;;;;;;-144.99;100.00;52568.34;5101136;28;19976;-61
2021/12/04 04:30:51;;;;;;;;;;;;;;;-144.99;100.00;52584.66;5098244;28;19976;-61
2021/12/04 04:33:17;;;;;;;;;;;;;;;-144.99;100.00;52586.69;5098095;28;19993;-59
2021/12/04 04:35:46;;;;;;;;;;;;;;;-144.99;100.00;52607.09;5098907;28;19977;-59
2021/12/04 04:38:27;;;;;;;;;;;;;;;-144.99;100.00;52586.69;5103224;28;20060;-60
2021/12/04 05:11:15;;;;;;;;;;;;;;;-144.99;100.00;52574.47;5099419;28;20392;-61
2021/12/04 05:13:42;;;;;;;;;;;;;;;-144.99;100.00;52594.84;5092711;28;20015;-61
2021/12/04 05:16:13;;;;;;;;;;;;;;;-144.99;100.00;52590.78;5089399;28;20149;-60
2021/12/04 05:18:42;;;;;;;;;;;;;;;-144.99;100.00;52594.84;5097328;28;19980;-61
2021/12/04 05:21:11;;;;;;;;;;;;;;;-144.99;100.00;52574.47;5087915;28;20146;-61
2021/12/04 05:23:39;;;;;;;;;;;;;;;-144.99;100.00;52594.84;5100171;28;19992;-61
2021/12/04 05:26:07;;;;;;;;;;;;;;;-144.99;100.00;52600.97;5102216;28;20015;-60
2021/12/04 05:28:35;;;;;;;;;;;;;;;-144.99;100.00;52615.25;5099584;28;20429;-61
2021/12/04 05:31:02;;;;;;;;;;;;;;;-144.99;100.00;52545.94;5100292;28;19981;-61
2021/12/04 05:33:29;;;;;;;;;;;;;;;-144.99;100.00;52621.34;5101659;28;19996;-61
2021/12/04 05:35:55;;;;;;;;;;;;;;;-144.99;100.00;52623.38;5099299;28;19976;-62
2021/12/04 05:38:22;;;;;;;;;;;;;;;-144.99;100.00;52582.63;5101512;28;20062;-62
2021/12/04 05:40:49;;;;;;;;;;;;;;;-144.99;100.00;52592.81;5105265;28;20052;-60
2021/12/04 05:43:16;;;;;;;;;;;;;;;-144.99;100.00;52603.00;5097414;28;20038;-64
2021/12/04 05:45:47;;;;;;;;;;;;;;;-144.99;100.00;52598.94;5103336;28;20352;-64
2021/12/04 05:48:19;;;;;;;;;;;;;;;-144.99;100.00;52574.47;5091027;28;19979;-62
2021/12/04 05:51:04;;;;;;;;;;;;;;;-144.99;100.00;52590.78;5102079;28;19976;-63
2021/12/04 05:53:41;;;;;;;;;;;;;;;-144.99;100.00;52586.69;5095345;28;20095;-63
2021/12/04 05:56:08;;;;;;;;;;;;;;;-144.99;100.00;52603.00;5097429;28;19972;-62
2021/12/04 05:58:34;;;;;;;;;;;;;;;-144.99;100.00;52590.78;5102010;28;19990;-62
2021/12/04 06:01:05;;;;;;;;;;;;;;;-144.99;100.00;52596.88;5099629;28;19977;-62
2021/12/04 06:03:31;;;;;;;;;;;;;;;-144.99;100.00;52582.63;5101536;28;20150;-62
2021/12/04 06:05:58;;;;;;;;;;;;;;;-144.99;100.00;52594.84;5098098;28;19976;-62
2021/12/04 06:08:24;;;;;;;;;;;;;;;-144.99;100.00;52582.63;5101532;28;19976;-60
2021/12/04 06:10:52;;;;;;;;;;;;;;;-144.99;100.00;52570.38;5097611;28;19976;-61
2021/12/04 06:13:18;;;;;;;;;;;;;;;-144.99;100.00;52582.63;5102043;28;19999;-61
2021/12/04 06:15:45;;;;;;;;;;;;;;;-144.99;100.00;52598.94;5094599;28;19981;-61
2021/12/04 06:18:15;;;;;;;;;;;;;;;-144.99;100.00;52580.59;5102731;28;19982;-61
2021/12/04 06:23:25;;;;;;;;;;;;;;;-144.99;100.00;52590.78;5094878;28;20473;-61
2021/12/04 06:25:51;;;;;;;;;;;;;;;-144.99;100.00;52623.38;5100513;28;19977;-62
2021/12/04 06:28:18;;;;;;;;;;;;;;;-144.99;100.00;52578.53;5098800;28;20025;-62
2021/12/04 06:30:44;;;;;;;;;;;;;;;-144.99;100.00;52623.38;5101495;28;20368;-60
2021/12/04 06:33:12;;;;;;;;;;;;;;;-144.99;100.00;52574.47;5108834;28;20003;-60
2021/12/04 06:35:41;;;;;;;;;;;;;;;-144.99;100.00;52607.09;5100838;28;19984;-60
2021/12/04 06:38:08;;;;;;;;;;;;;;;-144.99;100.00;52590.78;5106909;28;20341;-60
2021/12/04 06:40:34;;;;;;;;;;;;;;;-144.99;100.00;52611.16;5100045;28;20305;-61
2021/12/04 06:43:01;;;;;;;;;;;;;;;-144.99;100.00;52635.63;5105454;28;19992;-61
2021/12/04 06:45:29;;;;;;;;;;;;;;;-144.99;100.00;52607.09;5104653;28;19980;-62
2021/12/04 06:47:56;;;;;;;;;;;;;;;-144.99;100.00;52609.13;5101842;28;20157;-61
2021/12/04 06:50:31;;;;;;;;;;;;;;;-144.99;100.00;52578.53;5103154;28;19999;-62
2021/12/04 06:53:02;;;;;;;;;;;;;;;-144.99;100.00;52574.47;5100424;28;20033;-62
2021/12/04 06:55:36;;;;;;;;;;;;;;;-144.99;100.00;52582.63;5108554;28;20024;-60
2021/12/04 06:58:02;;;;;;;;;;;;;;;-144.99;100.00;52578.53;5102252;28;20029;-60
2021/12/04 07:00:30;;;;;;;;;;;;;;;-144.99;100.00;52619.31;5103352;28;19980;-60
2021/12/04 07:02:56;;;;;;;;;;;;;;;-144.99;100.00;52578.53;5100294;28;19992;-60
2021/12/04 07:05:23;;;;;;;;;;;;;;;-144.99;100.00;52586.69;5103077;28;19983;-61
2021/12/04 07:07:49;;;;;;;;;;;;;;;-144.99;100.00;52590.78;5101943;28;19983;-61
2021/12/04 07:10:17;;;;;;;;;;;;;;;-144.99;100.00;52607.09;5103881;28;19967;-61
2021/12/04 07:12:43;;;;;;;;;;;;;;;-144.99;100.00;52594.84;5100188;28;20067;-61
2021/12/04 07:15:11;;;;;;;;;;;;;;;-144.99;100.00;52580.59;5098603;28;20448;-61
2021/12/04 07:17:38;;;;;;;;;;;;;;;-144.99;100.00;52594.84;5100458;28;20062;-61
2021/12/04 07:20:05;;;;;;;;;;;;;;;-144.99;100.00;52609.13;5106467;28;19973;-61
2021/12/04 07:22:32;;;;;;;;;;;;;;;-144.99;100.00;52594.84;5099720;28;19976;-60
2021/12/04 07:24:58;;;;;;;;;;;;;;;-144.99;100.00;52598.94;5106135;28;20003;-60
2021/12/04 07:27:28;;;;;;;;;;;;;;;-144.99;100.00;52623.38;5099682;28;20422;-59
2021/12/04 07:29:54;;;;;;;;;;;;;;;-144.99;100.00;52572.44;5104552;28;19976;-59
2021/12/04 07:32:20;;;;;;;;;;;;;;;-144.99;100.00;52566.31;5103566;28;19979;-60
2021/12/04 07:34:47;;;;;;;;;;;;;;;-144.99;100.00;52596.88;5102116;28;20428;-60
2021/12/04 07:37:13;;;;;;;;;;;;;;;-144.99;100.00;52611.16;5093364;28;19973;-59
2021/12/04 07:39:40;;;;;;;;;;;;;;;-144.99;100.00;52615.25;5102340;28;19976;-61
2021/12/04 07:42:06;;;;;;;;;;;;;;;-144.99;100.00;52590.78;5103035;28;19972;-62
2021/12/04 07:44:34;;;;;;;;;;;;;;;-144.99;100.00;52598.94;5101576;28;19992;-61
2021/12/04 07:47:01;;;;;;;;;;;;;;;-144.99;100.00;52619.31;5099315;28;20404;-62
2021/12/04 07:49:27;;;;;;;;;;;;;;;-144.99;100.00;52570.38;5091261;28;19976;-61
2021/12/04 07:51:54;;;;;;;;;;;;;;;-144.99;100.00;52619.31;5101405;28;19976;-61
2021/12/04 07:54:20;;;;;;;;;;;;;;;-144.99;100.00;52552.03;5102295;28;20001;-61
2021/12/04 07:56:46;;;;;;;;;;;;;;;-144.99;100.00;52611.16;5100417;28;19976;-62
2021/12/04 07:59:13;;;;;;;;;;;;;;;-144.99;100.00;52545.94;5103811;28;19973;-62
2021/12/04 08:01:41;;;;;;;;;;;;;;;-144.99;100.00;52590.78;5106194;28;20444;-63
2021/12/04 08:04:07;;;;;;;;;;;;;;;-144.99;100.00;52623.38;5098634;28;19988;-63
2021/12/04 08:06:35;;;;;;;;;;;;;;;-144.99;100.00;52578.53;5103926;28;19976;-63
2021/12/04 08:09:01;;;;;;;;;;;;;;;-144.99;100.00;52603.00;5099839;28;20037;-64
2021/12/04 08:11:28;;;;;;;;;;;;;;;-144.99;100.00;52594.84;5101957;28;20324;-62
2021/12/04 08:13:55;;;;;;;;;;;;;;;-144.99;100.00;52580.59;5099955;28;20110;-61
2021/12/04 08:16:24;;;;;;;;;;;;;;;-144.99;100.00;52586.69;5100011;28;20091;-60
2021/12/04 08:18:52;;;;;;;;;;;;;;;-144.99;100.00;52629.50;5099121;28;19984;-62
2021/12/04 08:21:19;;;;;;;;;;;;;;;-144.99;100.00;52574.47;5102322;28;20010;-62
2021/12/04 08:23:45;;;;;;;;;;;;;;;-144.99;100.00;52643.78;5108708;22;20187;-62
2021/12/04 08:26:12;;;;;;;;;;;;;;;-144.99;100.00;52603.00;5066722;28;20019;-63
2021/12/04 08:28:38;;;;;;;;;;;;;;;-144.99;100.00;52586.69;5068369;28;20346;-62
2021/12/04 08:31:05;;;;;;;;;;;;;;;-144.99;100.00;52600.97;5068120;28;20447;-63
2021/12/04 08:33:31;;;;;;;;;;;;;;;-144.99;100.00;52582.63;5068342;28;20038;-61
2021/12/04 08:36:00;;;;;;;;;;;;;;;-144.99;100.00;52611.16;5067599;28;19985;-62
2021/12/04 08:38:27;;;;;;;;;;;;;;;-144.99;100.00;52598.94;5068218;28;19984;-64
2021/12/04 08:40:53;;;;;;;;;;;;;;;-144.99;100.00;52603.00;5067590;28;20079;-63
2021/12/04 08:43:20;;;;;;;;;;;;;;;-144.99;100.00;52562.25;5067624;28;20356;-64
2021/12/04 08:45:47;;;;;;;;;;;;;;;-144.99;100.00;52586.69;5068158;28;20031;-69
2021/12/04 08:48:14;;;;;;;;;;;;;;;-144.99;100.00;52570.38;5068511;28;19973;-70
2021/12/04 08:50:41;;;;;;;;;;;;;;;-144.99;100.00;52600.97;5068051;28;19977;-69
2021/12/04 08:53:09;;;;;;;;;;;;;;;-144.99;100.00;52635.63;5068010;28;20075;-71
2021/12/04 08:55:38;;;;;;;;;;;;;;;-144.99;100.00;52586.69;5068236;28;20087;-71
2021/12/04 08:58:23;;;;;;;;;;;;;;;-144.99;100.00;52558.16;5033879;28;10000604;-71
2021/12/04 09:00:52;;;;;;;;;;;;;;;-144.99;100.00;52623.38;5062296;28;20506;-72
2021/12/04 09:03:19;;;;;;;;;;;;;;;-144.99;100.00;52594.84;5064797;28;20080;-72
2021/12/04 09:05:45;;;;;;;;;;;;;;;-144.99;100.00;52615.25;5070462;28;19984;-72
2021/12/04 09:08:14;;;;;;;;;;;;;;;-144.99;100.00;52603.00;5064748;28;20477;-71
2021/12/04 09:10:43;;;;;;;;;;;;;;;-144.99;100.00;52639.69;5064835;28;20393;-74
2021/12/04 09:13:09;;;;;;;;;;;;;;;-144.99;100.00;52623.38;5056560;28;19999;-72
2021/12/04 09:15:36;;;;;;;;;;;;;;;-144.99;100.00;52533.69;5061558;28;19993;-71
2021/12/04 09:18:03;;;;;;;;;;;;;;;-144.99;100.00;52594.84;5068373;28;20000;-74
2021/12/04 09:20:31;;;;;;;;;;;;;;;-144.99;100.00;52582.63;5066272;28;19992;-71
2021/12/04 09:22:57;;;;;;;;;;;;;;;-144.99;100.00;52590.78;5065562;28;19996;-72
2021/12/04 09:25:27;;;;;;;;;;;;;;;-144.99;100.00;52607.09;5064382;28;19984;-71
2021/12/04 09:28:08;;;;;;;;;;;;;;;-144.99;100.00;52627.47;5065031;28;20483;-73
2021/12/04 09:30:54;;;;;;;;;;;;;;;-144.99;100.00;52635.63;5065112;28;19981;-71
2021/12/04 10:01:25;;;;;;;;;;;;;;;-144.99;100.00;52627.47;5088810;28;20416;-73
2021/12/04 10:20:39;;;;;;;;;;;;;;;-144.99;100.00;52598.94;5085926;28;19990;-72
2021/12/04 10:23:36;;;;;;;;;;;;;;;-144.99;100.00;52607.09;5098319;28;20400;-71
2021/12/04 10:34:25;;;;;;;;;;;;;;;-144.99;100.00;52598.94;5092692;28;20067;-71
2021/12/04 10:36:52;;;;;;;;;;;;;;;-144.99;100.00;52603.00;5116477;27;20424;-71
2021/12/04 10:39:18;;;;;;;;;;;;;;;-144.99;100.00;52607.09;5108439;27;20472;-71
2021/12/04 10:41:47;;;;;;;;;;;;;;;-144.99;100.00;52627.47;5120333;27;19990;-70
2021/12/04 10:44:15;;;;;;;;;;;;;;;-144.99;100.00;52568.34;5122595;28;19992;-71
2021/12/04 10:46:52;;;;;;;;;;;;;;;-144.99;100.00;52607.09;5115015;28;19976;-71
2021/12/04 10:49:29;;;;;;;;;;;;;;;-144.99;100.00;52566.31;5102103;27;19976;-72
2021/12/04 10:52:02;;;;;;;;;;;;;;;-144.99;100.00;52627.47;5107498;28;19984;-72
2021/12/04 10:54:33;;;;;;;;;;;;;;;-144.99;100.00;52615.25;5105933;28;19998;-72
2021/12/04 10:57:33;;;;;;;;;;;;;;;-144.99;100.00;52660.09;5109583;27;19977;-73
2021/12/04 11:00:05;;;;;;;;;;;;;;;-144.99;100.00;52633.59;5102600;27;20075;-72
2021/12/04 11:02:36;;;;;;;;;;;;;;;-144.99;100.00;52623.38;5107498;27;20191;-72
2021/12/04 11:05:15;;;;;;;;;;;;;;;-144.99;100.00;52586.69;5098361;28;19976;-72
2021/12/04 11:18:36;;;;;;;;;;;;;;;-144.99;100.00;52613.19;5108544;28;20097;-71
2021/12/04 11:19:24;;;;;;;;;;;;;;;-144.99;100.00;52623.38;5109129;27;19983;-71
2021/12/04 11:22:07;;;;;;;;;;;;;;;-144.99;100.00;52564.28;5108220;28;20367;-74
2021/12/04 11:27:55;;;;;;;;;;;;;;;-144.99;100.00;52600.97;5025596;28;20527;-71
2021/12/04 11:38:40;;;;;;;;;;;;;;;-144.99;100.00;52600.97;5103358;28;20459;-71
2021/12/04 11:44:01;;;;;;;;;;;;;;;-144.99;100.00;52613.19;5096722;28;19996;-72
2021/12/04 11:46:42;;;;;;;;;;;;;;;-144.99;100.00;52639.69;5107760;28;20041;-71
2021/12/04 11:49:13;;;;;;;;;;;;;;;-144.99;100.00;52627.47;5107297;28;20340;-71
2021/12/04 11:51:55;;;;;;;;;;;;;;;-144.99;100.00;52598.94;5101398;28;19987;-71
2021/12/04 11:54:22;;;;;;;;;;;;;;;-144.99;100.00;52582.63;5102765;28;20019;-74
2021/12/04 11:56:57;;;;;;;;;;;;;;;-144.99;100.00;52639.69;5108508;27;19995;-72
2021/12/04 11:59:26;;;;;;;;;;;;;;;-144.99;100.00;52633.59;5099627;28;20288;-72
2021/12/04 12:01:57;;;;;;;;;;;;;;;-144.99;100.00;52586.69;5106559;28;19976;-71
2021/12/04 12:04:31;;;;;;;;;;;;;;;-144.99;100.00;52623.38;5102139;28;19992;-71
2021/12/04 12:06:58;;;;;;;;;;;;;;;-144.99;100.00;52594.84;5095299;28;20433;-72
2021/12/04 12:09:27;;;;;;;;;;;;;;;-144.99;100.00;52611.16;5108458;28;19976;-71
2021/12/04 12:11:55;;;;;;;;;;;;;;;-144.99;100.00;52578.53;5102791;28;19976;-70
2021/12/04 12:14:23;;;;;;;;;;;;;;;-144.99;100.00;52615.25;5101630;27;20037;-71
2021/12/04 12:16:52;;;;;;;;;;;;;;;-144.99;100.00;52600.97;5104596;28;20057;-70
2021/12/04 12:19:26;;;;;;;;;;;;;;;-144.99;100.00;52578.53;5103489;28;19972;-71
2021/12/04 12:21:56;;;;;;;;;;;;;;;-144.99;100.00;52594.84;5106628;28;19980;-72
2021/12/04 12:27:28;;;;;;;;;;;;;;;-144.99;100.00;52621.34;5100891;28;19980;-70
2021/12/04 12:32:52;;;;;;;;;;;;;;;-144.99;100.00;52627.47;5102718;27;19983;-70
2021/12/04 12:38:06;;;;;;;;;;;;;;;-144.99;100.00;52623.38;5118583;27;19987;-70
2021/12/04 12:40:32;;;;;;;;;;;;;;;-144.99;100.00;52619.31;5096792;28;19972;-71
2021/12/04 12:43:08;;;;;;;;;;;;;;;-144.99;100.00;52594.84;5109900;28;19998;-70
2021/12/04 12:45:35;;;;;;;;;;;;;;;-144.99;100.00;52627.47;5098161;27;20191;-72
2021/12/04 12:48:03;;;;;;;;;;;;;;;-144.99;100.00;52611.16;5112277;27;20021;-72
2021/12/04 12:50:33;;;;;;;;;;;;;;;-144.99;100.00;52598.94;5104169;28;19976;-69
2021/12/04 12:53:01;;;;;;;;;;;;;;;-144.99;100.00;52603.00;5094855;28;19988;-71
2021/12/04 12:55:32;;;;;;;;;;;;;;;-144.99;100.00;52578.53;5091514;28;20337;-71
2021/12/04 12:57:59;;;;;;;;;;;;;;;-144.99;100.00;52611.16;5103543;27;20079;-72
2021/12/04 13:11:47;;;;;;;;;;;;;;;-144.99;100.00;52590.78;5096201;27;20456;-71
2021/12/04 13:14:14;;;;;;;;;;;;;;;-144.99;100.00;52615.25;5101624;27;19988;-70
2021/12/04 13:16:42;;;;;;;;;;;;;;;-144.99;100.00;52611.16;5098110;28;19988;-70
2021/12/04 13:19:11;;;;;;;;;;;;;;;-144.99;100.00;52586.69;5102548;27;19972;-70
2021/12/04 13:21:41;;;;;;;;;;;;;;;-144.99;100.00;52588.75;5112138;27;20008;-71
2021/12/04 13:24:10;;;;;;;;;;;;;;;-144.99;100.00;52562.25;5101808;28;19995;-72
2021/12/04 13:26:37;;;;;;;;;;;;;;;-144.99;100.00;52578.53;5096828;28;19979;-72
2021/12/04 13:29:04;;;;;;;;;;;;;;;-144.99;100.00;52547.97;5112088;28;20526;-71
2021/12/04 13:31:32;;;;;;;;;;;;;;;-144.99;100.00;52615.25;5099507;28;19986;-72
2021/12/04 13:33:58;;;;;;;;;;;;;;;-144.99;100.00;52582.63;5102082;28;19996;-74
2021/12/04 13:36:26;;;;;;;;;;;;;;;-144.99;100.00;52603.00;5108796;28;20000;-70
2021/12/04 13:38:56;;;;;;;;;;;;;;;-144.99;100.00;52623.38;5100073;28;19977;-72
2021/12/04 13:41:23;;;;;;;;;;;;;;;-144.99;100.00;52615.25;4399136;28;10000805;-69
2021/12/04 13:43:53;;;;;;;;;;;;;;;-144.99;100.00;52615.25;5089063;28;20391;-71
2021/12/04 13:46:19;;;;;;;;;;;;;;;-144.99;100.00;52607.09;5098731;28;20037;-72
2021/12/04 13:48:46;;;;;;;;;;;;;;;-144.99;100.00;52598.94;5102085;28;20003;-71
2021/12/04 13:51:15;;;;;;;;;;;;;;;-144.99;100.00;52588.75;5103891;28;20398;-71
2021/12/04 13:53:44;;;;;;;;;;;;;;;-144.99;100.00;52627.47;5087955;28;19992;-71
2021/12/04 13:56:14;;;;;;;;;;;;;;;-144.99;100.00;52582.63;5087161;28;20010;-73
2021/12/04 13:58:44;;;;;;;;;;;;;;;-144.99;100.00;52590.78;5091127;28;20353;-72
2021/12/04 14:01:11;;;;;;;;;;;;;;;-144.99;100.00;52617.28;5090437;28;20264;-71
2021/12/04 14:03:38;;;;;;;;;;;;;;;-144.99;100.00;52613.19;5094563;28;20095;-72
2021/12/04 14:06:09;;;;;;;;;;;;;;;-144.99;100.00;52598.94;5094933;28;20249;-71
2021/12/04 14:08:36;;;;;;;;;;;;;;;-144.99;100.00;52603.00;5092944;28;20118;-69
2021/12/04 14:11:02;;;;;;;;;;;;;;;-144.99;100.00;52594.84;5094942;28;19977;-70
2021/12/04 14:13:30;;;;;;;;;;;;;;;-144.99;100.00;52590.78;5088914;28;20010;-72
2021/12/04 14:15:57;;;;;;;;;;;;;;;-144.99;100.00;52594.84;5087615;28;19988;-71
2021/12/04 14:18:24;;;;;;;;;;;;;;;-144.99;100.00;52617.28;5091556;28;19987;-73
2021/12/04 14:20:52;;;;;;;;;;;;;;;-144.99;100.00;52645.81;5092906;28;19976;-70
2021/12/04 14:23:18;;;;;;;;;;;;;;;-144.99;100.00;52592.81;5104869;28;19992;-70
2021/12/04 14:25:51;;;;;;;;;;;;;;;-144.99;100.00;52594.84;5106781;28;19997;-70
2021/12/04 14:28:19;;;;;;;;;;;;;;;-144.99;100.00;52627.47;5108954;27;20055;-71
2021/12/04 14:30:47;;;;;;;;;;;;;;;-144.99;100.00;52627.47;5102171;28;19986;-71
2021/12/04 14:33:16;;;;;;;;;;;;;;;-144.99;100.00;52584.66;5106152;27;20080;-72
2021/12/04 14:35:44;;;;;;;;;;;;;;;-144.99;100.00;52594.84;5107831;28;20017;-73
2021/12/04 14:38:11;;;;;;;;;;;;;;;-144.99;100.00;52627.47;5103894;27;20548;-71
2021/12/04 14:40:40;;;;;;;;;;;;;;;-144.99;100.00;52611.16;5106512;28;20289;-70
2021/12/04 14:43:07;;;;;;;;;;;;;;;-144.99;100.00;52611.16;5103528;27;20350;-70
2021/12/04 14:45:35;;;;;;;;;;;;;;;-144.99;100.00;52578.53;5098168;28;19984;-70
2021/12/04 14:48:04;;;;;;;;;;;;;;;-144.99;100.00;52584.66;5104794;28;19980;-69
2021/12/04 14:50:32;;;;;;;;;;;;;;;-144.99;100.00;52611.16;5100991;28;19976;-69
2021/12/04 14:52:59;;;;;;;;;;;;;;;-144.99;100.00;52623.38;5096941;28;19996;-70